sensor_id;sensor_type;location;lat;lon;timestamp;temperature;humidity
18888;DHT22;9576;47.792;9.628;2023-05-07T00:02:28;13.90;99.90
18888;DHT22;9576;47.792;9.628;2023-05-07T00:05:31;13.80;99.90
18888;DHT22;9576;47.792;9.628;2023-05-07T00:08:33;13.80;99.90
18888;DHT22;9576;47.792;9.628;2023-05-07T00:11:35;13.70;99.90
18888;DHT22;9576;47.792;9.628;2023-05-07T00:14:36;13.70;99.90
18888;DHT22;9576;47.792;9.628;2023-05-07T00:17:40;13.70;99.90
18888;DHT22;9576;47.792;9.628;2023-05-07T00:20:42;13.70;99.90
18888;DHT22;9576;47.792;9.628;2023-05-07T00:23:44;13.60;99.90
18888;DHT22;9576;47.792;9.628;2023-05-07T00:26:46;13.50;99.90
18888;DHT22;9576;47.792;9.628;2023-05-07T00:29:48;13.60;99.90
18888;DHT22;9576;47.792;9.628;2023-05-07T00:32:51;13.50;99.90
18888;DHT22;9576;47.792;9.628;2023-05-07T00:35:53;13.60;99.90
18888;DHT22;9576;47.792;9.628;2023-05-07T00:38:57;13.60;99.90
18888;DHT22;9576;47.792;9.628;2023-05-07T00:42:00;13.50;99.90
18888;DHT22;9576;47.792;9.628;2023-05-07T00:45:03;13.50;99.90
18888;DHT22;9576;47.792;9.628;2023-05-07T00:48:07;13.40;99.90
18888;DHT22;9576;47.792;9.628;2023-05-07T00:51:09;13.40;99.90
18888;DHT22;9576;47.792;9.628;2023-05-07T00:54:12;13.50;99.90
18888;DHT22;9576;47.792;9.628;2023-05-07T00:57:14;13.40;99.90
18888;DHT22;9576;47.792;9.628;2023-05-07T01:00:17;13.40;99.90
18888;DHT22;9576;47.792;9.628;2023-05-07T01:03:23;13.40;99.90
18888;DHT22;9576;47.792;9.628;2023-05-07T01:06:26;13.40;99.90
18888;DHT22;9576;47.792;9.628;2023-05-07T01:09:29;13.40;99.90
18888;DHT22;9576;47.792;9.628;2023-05-07T01:12:31;13.40;99.90
18888;DHT22;9576;47.792;9.628;2023-05-07T01:15:34;13.40;99.90
18888;DHT22;9576;47.792;9.628;2023-05-07T01:18:37;13.40;99.90
18888;DHT22;9576;47.792;9.628;2023-05-07T01:21:45;13.40;99.90
18888;DHT22;9576;47.792;9.628;2023-05-07T01:24:49;13.40;99.90
18888;DHT22;9576;47.792;9.628;2023-05-07T01:27:52;13.30;99.90
18888;DHT22;9576;47.792;9.628;2023-05-07T01:30:56;13.30;99.90
18888;DHT22;9576;47.792;9.628;2023-05-07T01:34:03;13.30;99.90
18888;DHT22;9576;47.792;9.628;2023-05-07T01:37:06;13.30;99.90
18888;DHT22;9576;47.792;9.628;2023-05-07T01:40:10;13.30;99.90
18888;DHT22;9576;47.792;9.628;2023-05-07T01:43:12;13.30;99.90
18888;DHT22;9576;47.792;9.628;2023-05-07T01:46:15;13.30;99.90
18888;DHT22;9576;47.792;9.628;2023-05-07T01:49:18;13.30;99.90
18888;DHT22;9576;47.792;9.628;2023-05-07T01:52:20;13.30;99.90
18888;DHT22;9576;47.792;9.628;2023-05-07T01:55:23;13.30;99.90
18888;DHT22;9576;47.792;9.628;2023-05-07T01:58:25;13.30;99.90
18888;DHT22;9576;47.792;9.628;2023-05-07T02:01:27;13.20;99.90
18888;DHT22;9576;47.792;9.628;2023-05-07T02:04:29;13.20;99.90
18888;DHT22;9576;47.792;9.628;2023-05-07T02:07:31;13.20;99.90
18888;DHT22;9576;47.792;9.628;2023-05-07T02:10:34;13.20;99.90
18888;DHT22;9576;47.792;9.628;2023-05-07T02:13:36;13.10;99.90
18888;DHT22;9576;47.792;9.628;2023-05-07T02:16:38;13.00;99.90
18888;DHT22;9576;47.792;9.628;2023-05-07T02:19:40;12.90;99.90
18888;DHT22;9576;47.792;9.628;2023-05-07T02:22:42;13.00;99.90
18888;DHT22;9576;47.792;9.628;2023-05-07T02:25:45;12.90;99.90
18888;DHT22;9576;47.792;9.628;2023-05-07T02:28:47;12.90;99.90
18888;DHT22;9576;47.792;9.628;2023-05-07T02:31:49;12.90;99.90
18888;DHT22;9576;47.792;9.628;2023-05-07T02:34:53;12.90;99.90
18888;DHT22;9576;47.792;9.628;2023-05-07T02:37:55;12.80;99.90
18888;DHT22;9576;47.792;9.628;2023-05-07T02:40:58;12.80;99.90
18888;DHT22;9576;47.792;9.628;2023-05-07T02:44:00;12.80;99.90
18888;DHT22;9576;47.792;9.628;2023-05-07T02:47:03;12.60;99.90
18888;DHT22;9576;47.792;9.628;2023-05-07T02:50:09;12.60;99.90
18888;DHT22;9576;47.792;9.628;2023-05-07T02:53:13;12.50;99.90
18888;DHT22;9576;47.792;9.628;2023-05-07T02:56:16;12.50;99.90
18888;DHT22;9576;47.792;9.628;2023-05-07T02:59:18;12.50;99.90
18888;DHT22;9576;47.792;9.628;2023-05-07T03:02:20;12.50;99.90
18888;DHT22;9576;47.792;9.628;2023-05-07T03:05:23;12.40;99.90
18888;DHT22;9576;47.792;9.628;2023-05-07T03:08:25;12.40;99.90
18888;DHT22;9576;47.792;9.628;2023-05-07T03:11:29;12.30;99.90
18888;DHT22;9576;47.792;9.628;2023-05-07T03:14:31;12.30;99.90
18888;DHT22;9576;47.792;9.628;2023-05-07T03:17:32;12.30;99.90
18888;DHT22;9576;47.792;9.628;2023-05-07T03:20:34;12.30;99.90
18888;DHT22;9576;47.792;9.628;2023-05-07T03:23:37;12.20;99.90
18888;DHT22;9576;47.792;9.628;2023-05-07T03:26:40;12.20;99.90
18888;DHT22;9576;47.792;9.628;2023-05-07T03:29:42;12.10;99.90
18888;DHT22;9576;47.792;9.628;2023-05-07T03:32:44;12.10;99.90
18888;DHT22;9576;47.792;9.628;2023-05-07T03:35:46;12.10;99.90
18888;DHT22;9576;47.792;9.628;2023-05-07T03:38:48;12.10;99.90
18888;DHT22;9576;47.792;9.628;2023-05-07T03:41:51;12.00;99.90
18888;DHT22;9576;47.792;9.628;2023-05-07T03:44:54;12.00;99.90
18888;DHT22;9576;47.792;9.628;2023-05-07T03:47:56;12.00;99.90
18888;DHT22;9576;47.792;9.628;2023-05-07T03:51:00;11.90;99.90
18888;DHT22;9576;47.792;9.628;2023-05-07T03:54:02;11.90;99.90
18888;DHT22;9576;47.792;9.628;2023-05-07T03:57:06;11.90;99.90
18888;DHT22;9576;47.792;9.628;2023-05-07T04:00:09;11.80;99.90
18888;DHT22;9576;47.792;9.628;2023-05-07T04:03:11;11.80;99.90
18888;DHT22;9576;47.792;9.628;2023-05-07T04:06:15;11.70;99.90
18888;DHT22;9576;47.792;9.628;2023-05-07T04:09:17;11.70;99.90
18888;DHT22;9576;47.792;9.628;2023-05-07T04:12:20;11.70;99.90
18888;DHT22;9576;47.792;9.628;2023-05-07T04:15:22;11.70;99.90
18888;DHT22;9576;47.792;9.628;2023-05-07T04:18:24;11.70;99.90
18888;DHT22;9576;47.792;9.628;2023-05-07T04:21:26;11.70;99.90
18888;DHT22;9576;47.792;9.628;2023-05-07T04:24:31;11.70;99.90
18888;DHT22;9576;47.792;9.628;2023-05-07T04:27:35;11.70;99.90
18888;DHT22;9576;47.792;9.628;2023-05-07T04:30:37;11.70;99.90
18888;DHT22;9576;47.792;9.628;2023-05-07T04:33:41;11.80;99.90
18888;DHT22;9576;47.792;9.628;2023-05-07T04:36:43;11.80;99.90
18888;DHT22;9576;47.792;9.628;2023-05-07T04:39:45;11.80;99.90
18888;DHT22;9576;47.792;9.628;2023-05-07T04:42:48;11.90;99.90
18888;DHT22;9576;47.792;9.628;2023-05-07T04:45:52;11.90;99.90
18888;DHT22;9576;47.792;9.628;2023-05-07T04:48:55;11.90;99.90
18888;DHT22;9576;47.792;9.628;2023-05-07T04:51:57;11.90;99.90
18888;DHT22;9576;47.792;9.628;2023-05-07T04:55:00;12.00;99.90
18888;DHT22;9576;47.792;9.628;2023-05-07T04:58:03;12.00;99.90
18888;DHT22;9576;47.792;9.628;2023-05-07T05:01:12;12.10;99.90
18888;DHT22;9576;47.792;9.628;2023-05-07T05:04:14;12.10;99.90
18888;DHT22;9576;47.792;9.628;2023-05-07T05:07:16;12.20;99.90
18888;DHT22;9576;47.792;9.628;2023-05-07T05:10:18;12.20;99.90
18888;DHT22;9576;47.792;9.628;2023-05-07T05:13:22;12.10;99.90
18888;DHT22;9576;47.792;9.628;2023-05-07T05:16:24;12.10;99.90
18888;DHT22;9576;47.792;9.628;2023-05-07T05:19:26;12.00;99.90
18888;DHT22;9576;47.792;9.628;2023-05-07T05:22:28;12.10;99.90
18888;DHT22;9576;47.792;9.628;2023-05-07T05:25:31;12.20;99.90
18888;DHT22;9576;47.792;9.628;2023-05-07T05:28:34;12.30;99.90
18888;DHT22;9576;47.792;9.628;2023-05-07T05:31:36;12.30;99.90
18888;DHT22;9576;47.792;9.628;2023-05-07T05:34:38;12.50;99.90
18888;DHT22;9576;47.792;9.628;2023-05-07T05:37:40;12.50;99.90
18888;DHT22;9576;47.792;9.628;2023-05-07T05:40:42;12.60;99.90
18888;DHT22;9576;47.792;9.628;2023-05-07T05:43:45;12.60;99.90
18888;DHT22;9576;47.792;9.628;2023-05-07T05:46:47;12.60;99.90
18888;DHT22;9576;47.792;9.628;2023-05-07T05:49:50;12.50;99.90
18888;DHT22;9576;47.792;9.628;2023-05-07T05:52:52;12.60;99.90
18888;DHT22;9576;47.792;9.628;2023-05-07T05:55:54;12.60;99.90
18888;DHT22;9576;47.792;9.628;2023-05-07T05:59:05;12.80;99.90
18888;DHT22;9576;47.792;9.628;2023-05-07T06:02:07;12.90;99.90
18888;DHT22;9576;47.792;9.628;2023-05-07T06:05:09;12.90;99.90
18888;DHT22;9576;47.792;9.628;2023-05-07T06:08:11;13.00;99.90
18888;DHT22;9576;47.792;9.628;2023-05-07T06:11:15;13.10;99.90
18888;DHT22;9576;47.792;9.628;2023-05-07T06:14:19;13.20;99.90
18888;DHT22;9576;47.792;9.628;2023-05-07T06:17:21;13.40;99.90
18888;DHT22;9576;47.792;9.628;2023-05-07T06:20:23;13.50;99.90
18888;DHT22;9576;47.792;9.628;2023-05-07T06:23:25;13.60;99.90
18888;DHT22;9576;47.792;9.628;2023-05-07T06:26:27;13.50;99.90
18888;DHT22;9576;47.792;9.628;2023-05-07T06:29:30;13.50;99.90
18888;DHT22;9576;47.792;9.628;2023-05-07T06:32:33;13.70;99.90
18888;DHT22;9576;47.792;9.628;2023-05-07T06:35:35;13.70;99.90
18888;DHT22;9576;47.792;9.628;2023-05-07T06:38:37;13.80;99.90
18888;DHT22;9576;47.792;9.628;2023-05-07T06:41:39;13.80;99.90
18888;DHT22;9576;47.792;9.628;2023-05-07T06:44:42;13.90;99.90
18888;DHT22;9576;47.792;9.628;2023-05-07T06:47:45;14.10;99.90
18888;DHT22;9576;47.792;9.628;2023-05-07T06:50:46;14.40;99.90
18888;DHT22;9576;47.792;9.628;2023-05-07T06:53:50;14.50;99.90
18888;DHT22;9576;47.792;9.628;2023-05-07T06:56:53;14.60;99.90
18888;DHT22;9576;47.792;9.628;2023-05-07T06:59:56;14.80;99.90
18888;DHT22;9576;47.792;9.628;2023-05-07T07:02:58;14.70;99.90
18888;DHT22;9576;47.792;9.628;2023-05-07T07:06:01;14.90;99.90
18888;DHT22;9576;47.792;9.628;2023-05-07T07:09:12;15.10;99.90
18888;DHT22;9576;47.792;9.628;2023-05-07T07:12:14;15.40;99.90
18888;DHT22;9576;47.792;9.628;2023-05-07T07:15:17;15.60;99.90
18888;DHT22;9576;47.792;9.628;2023-05-07T07:18:21;15.70;99.90
18888;DHT22;9576;47.792;9.628;2023-05-07T07:21:23;15.80;99.90
18888;DHT22;9576;47.792;9.628;2023-05-07T07:24:24;15.80;99.90
18888;DHT22;9576;47.792;9.628;2023-05-07T07:27:26;15.80;99.90
18888;DHT22;9576;47.792;9.628;2023-05-07T07:30:37;15.90;99.90
18888;DHT22;9576;47.792;9.628;2023-05-07T07:33:40;15.90;99.90
18888;DHT22;9576;47.792;9.628;2023-05-07T07:36:41;16.00;99.90
18888;DHT22;9576;47.792;9.628;2023-05-07T07:39:43;16.10;99.90
18888;DHT22;9576;47.792;9.628;2023-05-07T07:42:46;16.30;99.90
18888;DHT22;9576;47.792;9.628;2023-05-07T07:45:51;16.40;99.90
18888;DHT22;9576;47.792;9.628;2023-05-07T07:48:53;16.60;99.90
18888;DHT22;9576;47.792;9.628;2023-05-07T07:51:55;16.70;99.90
18888;DHT22;9576;47.792;9.628;2023-05-07T07:55:03;16.80;99.90
18888;DHT22;9576;47.792;9.628;2023-05-07T07:58:06;16.90;99.90
18888;DHT22;9576;47.792;9.628;2023-05-07T08:01:09;17.00;99.90
18888;DHT22;9576;47.792;9.628;2023-05-07T08:04:12;17.20;99.90
18888;DHT22;9576;47.792;9.628;2023-05-07T08:07:18;17.30;99.90
18888;DHT22;9576;47.792;9.628;2023-05-07T08:10:21;17.50;99.90
18888;DHT22;9576;47.792;9.628;2023-05-07T08:13:23;17.60;99.90
18888;DHT22;9576;47.792;9.628;2023-05-07T08:16:26;17.70;99.90
18888;DHT22;9576;47.792;9.628;2023-05-07T08:19:33;17.80;99.90
18888;DHT22;9576;47.792;9.628;2023-05-07T08:22:35;18.00;99.90
18888;DHT22;9576;47.792;9.628;2023-05-07T08:25:37;18.20;99.90
18888;DHT22;9576;47.792;9.628;2023-05-07T08:28:39;18.20;99.90
18888;DHT22;9576;47.792;9.628;2023-05-07T08:31:44;18.30;99.90
18888;DHT22;9576;47.792;9.628;2023-05-07T08:34:47;18.30;99.90
18888;DHT22;9576;47.792;9.628;2023-05-07T08:37:49;18.40;99.90
18888;DHT22;9576;47.792;9.628;2023-05-07T08:40:51;18.60;99.90
18888;DHT22;9576;47.792;9.628;2023-05-07T08:44:00;18.50;99.90
18888;DHT22;9576;47.792;9.628;2023-05-07T08:47:06;18.60;99.90
18888;DHT22;9576;47.792;9.628;2023-05-07T08:50:09;18.70;99.90
18888;DHT22;9576;47.792;9.628;2023-05-07T08:53:12;18.80;99.90
18888;DHT22;9576;47.792;9.628;2023-05-07T08:56:15;19.00;99.90
18888;DHT22;9576;47.792;9.628;2023-05-07T08:59:19;19.00;99.90
18888;DHT22;9576;47.792;9.628;2023-05-07T09:02:22;19.20;99.90
18888;DHT22;9576;47.792;9.628;2023-05-07T09:05:24;19.30;99.90
18888;DHT22;9576;47.792;9.628;2023-05-07T09:08:27;19.30;99.90
18888;DHT22;9576;47.792;9.628;2023-05-07T09:11:31;19.40;99.90
18888;DHT22;9576;47.792;9.628;2023-05-07T09:14:33;19.40;99.90
18888;DHT22;9576;47.792;9.628;2023-05-07T09:17:36;19.50;99.90
18888;DHT22;9576;47.792;9.628;2023-05-07T09:20:39;19.70;99.90
18888;DHT22;9576;47.792;9.628;2023-05-07T09:23:47;19.70;99.90
18888;DHT22;9576;47.792;9.628;2023-05-07T09:26:49;20.00;99.90
18888;DHT22;9576;47.792;9.628;2023-05-07T09:29:51;20.10;99.90
18888;DHT22;9576;47.792;9.628;2023-05-07T09:32:59;20.20;99.90
18888;DHT22;9576;47.792;9.628;2023-05-07T09:36:05;20.40;99.90
18888;DHT22;9576;47.792;9.628;2023-05-07T09:39:07;20.40;99.90
18888;DHT22;9576;47.792;9.628;2023-05-07T09:42:10;20.60;99.90
18888;DHT22;9576;47.792;9.628;2023-05-07T09:45:12;20.60;99.90
18888;DHT22;9576;47.792;9.628;2023-05-07T09:48:17;20.70;99.90
18888;DHT22;9576;47.792;9.628;2023-05-07T09:51:24;20.70;99.90
18888;DHT22;9576;47.792;9.628;2023-05-07T09:54:27;20.70;99.90
18888;DHT22;9576;47.792;9.628;2023-05-07T09:57:30;20.90;99.90
18888;DHT22;9576;47.792;9.628;2023-05-07T10:00:33;21.10;99.90
18888;DHT22;9576;47.792;9.628;2023-05-07T10:03:40;21.30;99.90
18888;DHT22;9576;47.792;9.628;2023-05-07T10:06:42;21.50;99.90
18888;DHT22;9576;47.792;9.628;2023-05-07T10:09:45;21.60;99.90
18888;DHT22;9576;47.792;9.628;2023-05-07T10:12:47;21.70;99.90
18888;DHT22;9576;47.792;9.628;2023-05-07T10:15:50;21.60;99.90
18888;DHT22;9576;47.792;9.628;2023-05-07T10:18:55;21.80;99.90
18888;DHT22;9576;47.792;9.628;2023-05-07T10:22:03;21.90;99.90
18888;DHT22;9576;47.792;9.628;2023-05-07T10:25:14;21.80;99.90
18888;DHT22;9576;47.792;9.628;2023-05-07T10:28:18;21.90;99.90
18888;DHT22;9576;47.792;9.628;2023-05-07T10:34:50;22.20;99.90
18888;DHT22;9576;47.792;9.628;2023-05-07T10:37:54;22.30;99.90
18888;DHT22;9576;47.792;9.628;2023-05-07T10:40:56;22.30;99.90
18888;DHT22;9576;47.792;9.628;2023-05-07T10:43:59;22.30;99.90
18888;DHT22;9576;47.792;9.628;2023-05-07T10:47:07;22.30;99.90
18888;DHT22;9576;47.792;9.628;2023-05-07T10:50:23;22.40;99.90
18888;DHT22;9576;47.792;9.628;2023-05-07T10:53:25;22.40;99.90
18888;DHT22;9576;47.792;9.628;2023-05-07T10:56:29;22.70;99.90
18888;DHT22;9576;47.792;9.628;2023-05-07T10:59:33;22.90;99.90
18888;DHT22;9576;47.792;9.628;2023-05-07T11:03:05;23.10;99.90
18888;DHT22;9576;47.792;9.628;2023-05-07T11:06:13;23.30;99.90
18888;DHT22;9576;47.792;9.628;2023-05-07T11:09:16;23.30;99.90
18888;DHT22;9576;47.792;9.628;2023-05-07T11:12:50;23.40;99.90
18888;DHT22;9576;47.792;9.628;2023-05-07T11:15:52;23.50;99.90
18888;DHT22;9576;47.792;9.628;2023-05-07T11:18:55;23.40;99.90
18888;DHT22;9576;47.792;9.628;2023-05-07T11:22:03;23.40;99.90
18888;DHT22;9576;47.792;9.628;2023-05-07T11:25:06;23.60;99.90
18888;DHT22;9576;47.792;9.628;2023-05-07T11:28:08;23.80;99.90
18888;DHT22;9576;47.792;9.628;2023-05-07T11:31:11;23.90;99.90
18888;DHT22;9576;47.792;9.628;2023-05-07T11:34:14;24.10;99.90
18888;DHT22;9576;47.792;9.628;2023-05-07T11:37:19;24.30;99.90
18888;DHT22;9576;47.792;9.628;2023-05-07T11:40:21;24.30;99.90
18888;DHT22;9576;47.792;9.628;2023-05-07T11:43:23;24.10;99.90
18888;DHT22;9576;47.792;9.628;2023-05-07T11:46:28;24.30;99.90
18888;DHT22;9576;47.792;9.628;2023-05-07T11:49:30;24.30;99.90
18888;DHT22;9576;47.792;9.628;2023-05-07T11:52:34;24.70;99.90
18888;DHT22;9576;47.792;9.628;2023-05-07T11:55:36;24.50;99.90
18888;DHT22;9576;47.792;9.628;2023-05-07T11:58:46;24.80;99.90
18888;DHT22;9576;47.792;9.628;2023-05-07T12:01:48;25.00;99.90
18888;DHT22;9576;47.792;9.628;2023-05-07T12:04:50;25.50;99.90
18888;DHT22;9576;47.792;9.628;2023-05-07T12:07:57;25.90;99.90
18888;DHT22;9576;47.792;9.628;2023-05-07T12:10:59;25.80;99.90
18888;DHT22;9576;47.792;9.628;2023-05-07T12:14:01;25.90;99.90
18888;DHT22;9576;47.792;9.628;2023-05-07T12:17:05;25.80;99.90
18888;DHT22;9576;47.792;9.628;2023-05-07T12:20:08;25.90;99.90
18888;DHT22;9576;47.792;9.628;2023-05-07T12:23:13;26.00;99.90
18888;DHT22;9576;47.792;9.628;2023-05-07T12:26:15;26.20;99.90
18888;DHT22;9576;47.792;9.628;2023-05-07T12:29:21;26.00;99.90
18888;DHT22;9576;47.792;9.628;2023-05-07T12:32:23;26.10;99.90
18888;DHT22;9576;47.792;9.628;2023-05-07T12:35:28;26.40;99.90
18888;DHT22;9576;47.792;9.628;2023-05-07T12:38:34;26.80;99.90
18888;DHT22;9576;47.792;9.628;2023-05-07T12:41:52;26.30;99.90
18888;DHT22;9576;47.792;9.628;2023-05-07T12:44:54;26.20;99.90
18888;DHT22;9576;47.792;9.628;2023-05-07T12:48:01;26.30;99.90
18888;DHT22;9576;47.792;9.628;2023-05-07T12:51:05;26.60;99.90
18888;DHT22;9576;47.792;9.628;2023-05-07T12:54:09;27.10;99.90
18888;DHT22;9576;47.792;9.628;2023-05-07T12:57:11;27.50;99.90
18888;DHT22;9576;47.792;9.628;2023-05-07T13:00:14;27.40;99.90
18888;DHT22;9576;47.792;9.628;2023-05-07T13:03:23;27.90;99.90
18888;DHT22;9576;47.792;9.628;2023-05-07T13:06:25;28.20;99.90
18888;DHT22;9576;47.792;9.628;2023-05-07T13:09:29;28.40;99.90
18888;DHT22;9576;47.792;9.628;2023-05-07T13:12:32;28.60;99.90
18888;DHT22;9576;47.792;9.628;2023-05-07T13:15:34;28.90;99.90
18888;DHT22;9576;47.792;9.628;2023-05-07T13:18:37;29.50;99.90
18888;DHT22;9576;47.792;9.628;2023-05-07T13:21:39;29.60;99.90
18888;DHT22;9576;47.792;9.628;2023-05-07T13:24:42;29.00;99.90
18888;DHT22;9576;47.792;9.628;2023-05-07T13:27:45;28.80;99.90
18888;DHT22;9576;47.792;9.628;2023-05-07T13:30:47;29.10;99.90
18888;DHT22;9576;47.792;9.628;2023-05-07T13:33:49;28.90;99.90
18888;DHT22;9576;47.792;9.628;2023-05-07T13:36:51;28.10;99.90
18888;DHT22;9576;47.792;9.628;2023-05-07T13:39:59;28.50;99.90
18888;DHT22;9576;47.792;9.628;2023-05-07T13:43:01;28.60;99.90
18888;DHT22;9576;47.792;9.628;2023-05-07T13:46:03;29.20;99.90
18888;DHT22;9576;47.792;9.628;2023-05-07T13:49:06;29.70;99.90
18888;DHT22;9576;47.792;9.628;2023-05-07T13:52:11;29.90;99.90
18888;DHT22;9576;47.792;9.628;2023-05-07T13:55:14;29.50;99.90
18888;DHT22;9576;47.792;9.628;2023-05-07T13:58:16;28.90;99.90
18888;DHT22;9576;47.792;9.628;2023-05-07T14:01:18;29.00;99.90
18888;DHT22;9576;47.792;9.628;2023-05-07T14:04:26;29.50;99.90
18888;DHT22;9576;47.792;9.628;2023-05-07T14:07:28;29.90;99.90
18888;DHT22;9576;47.792;9.628;2023-05-07T14:10:31;30.20;99.90
18888;DHT22;9576;47.792;9.628;2023-05-07T14:13:35;30.40;99.90
18888;DHT22;9576;47.792;9.628;2023-05-07T14:16:38;30.50;99.90
18888;DHT22;9576;47.792;9.628;2023-05-07T14:19:41;31.20;99.90
18888;DHT22;9576;47.792;9.628;2023-05-07T14:22:43;31.30;98.50
18888;DHT22;9576;47.792;9.628;2023-05-07T14:25:47;31.80;99.90
18888;DHT22;9576;47.792;9.628;2023-05-07T14:28:53;31.90;97.80
18888;DHT22;9576;47.792;9.628;2023-05-07T14:31:57;31.50;98.00
18888;DHT22;9576;47.792;9.628;2023-05-07T14:35:04;31.40;98.10
18888;DHT22;9576;47.792;9.628;2023-05-07T14:38:09;31.40;99.80
18888;DHT22;9576;47.792;9.628;2023-05-07T14:41:12;31.90;99.90
18888;DHT22;9576;47.792;9.628;2023-05-07T14:44:15;32.50;96.70
18888;DHT22;9576;47.792;9.628;2023-05-07T14:47:17;31.90;97.10
18888;DHT22;9576;47.792;9.628;2023-05-07T14:50:19;30.60;97.20
18888;DHT22;9576;47.792;9.628;2023-05-07T14:53:21;30.00;98.80
18888;DHT22;9576;47.792;9.628;2023-05-07T14:56:27;29.50;98.20
18888;DHT22;9576;47.792;9.628;2023-05-07T14:59:38;28.10;97.80
18888;DHT22;9576;47.792;9.628;2023-05-07T15:02:40;27.30;98.00
18888;DHT22;9576;47.792;9.628;2023-05-07T15:05:41;26.90;99.50
18888;DHT22;9576;47.792;9.628;2023-05-07T15:08:47;26.00;99.90
18888;DHT22;9576;47.792;9.628;2023-05-07T15:11:50;25.70;99.90
18888;DHT22;9576;47.792;9.628;2023-05-07T15:14:52;25.60;99.90
18888;DHT22;9576;47.792;9.628;2023-05-07T15:17:54;25.50;99.90
18888;DHT22;9576;47.792;9.628;2023-05-07T15:20:59;24.90;99.90
18888;DHT22;9576;47.792;9.628;2023-05-07T15:24:01;24.50;99.90
18888;DHT22;9576;47.792;9.628;2023-05-07T15:27:04;24.00;99.90
18888;DHT22;9576;47.792;9.628;2023-05-07T15:30:07;23.70;99.90
18888;DHT22;9576;47.792;9.628;2023-05-07T15:33:16;24.50;99.90
18888;DHT22;9576;47.792;9.628;2023-05-07T15:36:19;25.10;99.90
18888;DHT22;9576;47.792;9.628;2023-05-07T15:39:21;25.40;99.90
18888;DHT22;9576;47.792;9.628;2023-05-07T15:42:25;25.90;99.90
18888;DHT22;9576;47.792;9.628;2023-05-07T15:45:32;26.70;99.90
18888;DHT22;9576;47.792;9.628;2023-05-07T15:48:34;26.80;99.90
18888;DHT22;9576;47.792;9.628;2023-05-07T15:51:36;27.00;99.90
18888;DHT22;9576;47.792;9.628;2023-05-07T15:54:37;26.70;99.90
18888;DHT22;9576;47.792;9.628;2023-05-07T15:57:46;26.50;99.90
18888;DHT22;9576;47.792;9.628;2023-05-07T16:00:48;25.40;99.90
18888;DHT22;9576;47.792;9.628;2023-05-07T16:03:50;24.70;99.90
18888;DHT22;9576;47.792;9.628;2023-05-07T16:06:52;23.50;99.90
18888;DHT22;9576;47.792;9.628;2023-05-07T16:09:55;22.90;99.90
18888;DHT22;9576;47.792;9.628;2023-05-07T16:13:00;22.10;99.90
18888;DHT22;9576;47.792;9.628;2023-05-07T16:16:02;21.70;99.90
18888;DHT22;9576;47.792;9.628;2023-05-07T16:19:04;21.30;99.90
18888;DHT22;9576;47.792;9.628;2023-05-07T16:22:16;21.30;99.90
18888;DHT22;9576;47.792;9.628;2023-05-07T16:25:18;21.50;99.90
18888;DHT22;9576;47.792;9.628;2023-05-07T16:28:22;21.60;99.90
18888;DHT22;9576;47.792;9.628;2023-05-07T16:31:24;21.30;99.90
18888;DHT22;9576;47.792;9.628;2023-05-07T16:34:26;21.30;99.90
18888;DHT22;9576;47.792;9.628;2023-05-07T16:37:28;21.10;99.90
18888;DHT22;9576;47.792;9.628;2023-05-07T16:40:30;20.80;99.90
18888;DHT22;9576;47.792;9.628;2023-05-07T16:43:33;20.50;99.90
18888;DHT22;9576;47.792;9.628;2023-05-07T16:46:41;19.90;99.90
18888;DHT22;9576;47.792;9.628;2023-05-07T16:49:43;19.60;99.90
18888;DHT22;9576;47.792;9.628;2023-05-07T16:52:45;19.30;99.90
18888;DHT22;9576;47.792;9.628;2023-05-07T16:55:47;19.20;99.90
18888;DHT22;9576;47.792;9.628;2023-05-07T16:58:57;19.10;99.90
18888;DHT22;9576;47.792;9.628;2023-05-07T17:01:59;19.10;99.90
18888;DHT22;9576;47.792;9.628;2023-05-07T17:05:02;19.00;99.90
18888;DHT22;9576;47.792;9.628;2023-05-07T17:08:05;18.90;99.90
18888;DHT22;9576;47.792;9.628;2023-05-07T17:11:08;18.80;99.90
18888;DHT22;9576;47.792;9.628;2023-05-07T17:14:11;18.70;99.90
18888;DHT22;9576;47.792;9.628;2023-05-07T17:17:13;18.50;99.90
18888;DHT22;9576;47.792;9.628;2023-05-07T17:20:15;18.40;99.90
18888;DHT22;9576;47.792;9.628;2023-05-07T17:23:25;18.40;99.90
18888;DHT22;9576;47.792;9.628;2023-05-07T17:26:27;18.30;99.90
18888;DHT22;9576;47.792;9.628;2023-05-07T17:29:30;18.30;99.90
18888;DHT22;9576;47.792;9.628;2023-05-07T17:32:32;18.10;99.90
18888;DHT22;9576;47.792;9.628;2023-05-07T17:35:39;18.10;99.90
18888;DHT22;9576;47.792;9.628;2023-05-07T17:38:41;18.00;99.90
18888;DHT22;9576;47.792;9.628;2023-05-07T17:41:43;18.00;99.90
18888;DHT22;9576;47.792;9.628;2023-05-07T17:44:46;18.00;99.90
18888;DHT22;9576;47.792;9.628;2023-05-07T17:47:52;18.00;99.90
18888;DHT22;9576;47.792;9.628;2023-05-07T17:50:59;17.90;99.90
18888;DHT22;9576;47.792;9.628;2023-05-07T17:54:01;17.90;99.90
18888;DHT22;9576;47.792;9.628;2023-05-07T17:57:03;18.00;99.90
18888;DHT22;9576;47.792;9.628;2023-05-07T18:00:08;18.00;99.90
18888;DHT22;9576;47.792;9.628;2023-05-07T18:03:10;17.90;99.90
18888;DHT22;9576;47.792;9.628;2023-05-07T18:06:12;17.80;99.90
18888;DHT22;9576;47.792;9.628;2023-05-07T18:09:17;17.80;99.90
18888;DHT22;9576;47.792;9.628;2023-05-07T18:12:20;17.80;99.90
18888;DHT22;9576;47.792;9.628;2023-05-07T18:15:23;17.70;99.90
18888;DHT22;9576;47.792;9.628;2023-05-07T18:18:25;17.50;99.90
18888;DHT22;9576;47.792;9.628;2023-05-07T18:21:30;17.40;99.90
18888;DHT22;9576;47.792;9.628;2023-05-07T18:24:34;17.50;99.90
18888;DHT22;9576;47.792;9.628;2023-05-07T18:27:36;17.20;99.90
18888;DHT22;9576;47.792;9.628;2023-05-07T18:30:39;17.00;99.90
18888;DHT22;9576;47.792;9.628;2023-05-07T18:33:41;16.70;99.90
18888;DHT22;9576;47.792;9.628;2023-05-07T18:36:50;16.70;99.90
18888;DHT22;9576;47.792;9.628;2023-05-07T18:39:52;16.80;99.90
18888;DHT22;9576;47.792;9.628;2023-05-07T18:42:54;16.80;99.90
18888;DHT22;9576;47.792;9.628;2023-05-07T18:45:57;16.70;99.90
18888;DHT22;9576;47.792;9.628;2023-05-07T18:49:08;16.50;99.90
18888;DHT22;9576;47.792;9.628;2023-05-07T18:52:10;16.50;99.90
18888;DHT22;9576;47.792;9.628;2023-05-07T18:55:12;16.50;99.90
18888;DHT22;9576;47.792;9.628;2023-05-07T18:58:14;16.60;99.90
18888;DHT22;9576;47.792;9.628;2023-05-07T19:01:18;16.50;99.90
18888;DHT22;9576;47.792;9.628;2023-05-07T19:04:20;16.40;99.90
18888;DHT22;9576;47.792;9.628;2023-05-07T19:07:23;16.30;99.90
18888;DHT22;9576;47.792;9.628;2023-05-07T19:10:25;16.30;99.90
18888;DHT22;9576;47.792;9.628;2023-05-07T19:13:32;16.20;99.90
18888;DHT22;9576;47.792;9.628;2023-05-07T19:16:35;16.30;99.90
18888;DHT22;9576;47.792;9.628;2023-05-07T19:19:37;16.30;99.90
18888;DHT22;9576;47.792;9.628;2023-05-07T19:22:40;16.20;99.90
18888;DHT22;9576;47.792;9.628;2023-05-07T19:25:49;16.20;99.90
18888;DHT22;9576;47.792;9.628;2023-05-07T19:28:51;16.30;99.90
18888;DHT22;9576;47.792;9.628;2023-05-07T19:31:54;16.20;99.90
18888;DHT22;9576;47.792;9.628;2023-05-07T19:34:56;16.10;99.90
18888;DHT22;9576;47.792;9.628;2023-05-07T19:38:00;16.10;99.90
18888;DHT22;9576;47.792;9.628;2023-05-07T19:41:02;16.10;99.90